This is the latest recevied weather packets stored in our database for station/object KC9MWQ-13. If no packets are shown the sender has not sent any weather packets the latest 1 day(s).
| Time | Temp. | Humidity | Pressure | Rain* | Wind** | Luminosity | Snow |
|---|---|---|---|---|---|---|---|
| 1778110145 | 12.78° C | 59% | 1014.3 hPa | 0 mm | - | 69 W/m² | - |
| 1778109841 | 12.78° C | 59% | 1014.5 hPa | 0 mm | - | 75 W/m² | - |
| 1778108932 | 12.78° C | 61% | 1014.3 hPa | 0 mm | - | 81 W/m² | - |
| 1778105596 | 13.33° C | 59% | 1014.4 hPa | 0 mm | - | 150 W/m² | - |
| 1778104077 | 13.33° C | 58% | 1014.3 hPa | 0 mm | - | 184 W/m² | - |
| 1778103169 | 13.33° C | 62% | 1014.4 hPa | 0 mm | - | 170 W/m² | - |
| 1778101954 | 14.44° C | 57% | 1014.3 hPa | 0 mm | - | 202 W/m² | - |
| 1778101348 | 13.89° C | 63% | 1014.4 hPa | 0 mm | - | 184 W/m² | - |
| 1778100135 | 13.89° C | 58% | 1014.5 hPa | 0 mm | - | 404 W/m² | - |
| 1778099833 | 13.89° C | 58% | 1014.5 hPa | 0 mm | - | 453 W/m² | - |
| 1778099530 | 13.33° C | 61% | 1014.4 hPa | 0 mm | - | 376 W/m² | - |
| 1778099228 | 13.33° C | 60% | 1014.3 hPa | 0 mm | - | 310 W/m² | - |
| 1778098621 | 13.89° C | 57% | 1014.7 hPa | 0 mm | - | 276 W/m² | - |
| 1778096497 | 13.89° C | 60% | 1014.6 hPa | 0 mm | - | 333 W/m² | - |
| 1778093163 | 12.78° C | 62% | 1014.6 hPa | 0 mm | - | 265 W/m² | - |
| 1778091345 | 13.33° C | 62% | 1014.9 hPa | 0 mm | - | 255 W/m² | - |
| 1778090738 | 12.78° C | 62% | 1014.7 hPa | 0 mm | - | 242 W/m² | - |
| 1778089828 | 12.22° C | 64% | 1015 hPa | 0 mm | - | 201 W/m² | - |
| 1778089527 | 12.78° C | 62% | 1014.9 hPa | 0 mm | - | 155 W/m² | - |
| 1778088617 | 12.22° C | 63% | 1014.7 hPa | 0 mm | - | 172 W/m² | - |
| 1778085891 | 13.33° C | 59% | 1014.6 hPa | 0 mm | - | 491 W/m² | - |
| 1778085589 | 13.89° C | 58% | 1014.7 hPa | 0 mm | - | 701 W/m² | - |
| 1778085284 | 13.89° C | 61% | 1014.9 hPa | 0 mm | - | 569 W/m² | - |
| 1778084676 | 12.78° C | 64% | 1014.7 hPa | 0 mm | - | 479 W/m² | - |
| 1778083158 | 11.67° C | 63% | 1014.6 hPa | 0 mm | - | 258 W/m² | - |
* Rain latest hour (hover to see other rain measurements)
** Current wind speed in m/s (hover to see current wind gust speed)